sensor_id;sensor_type;location;lat;lon;timestamp;pressure;altitude;pressure_sealevel;temperature;humidity
51297;BME280;37380;45.186;9.792;2022-10-31T00:00:19;101687.97;;;12.25;100.00
51297;BME280;37380;45.186;9.792;2022-10-31T00:03:13;101670.34;;;12.02;100.00
51297;BME280;37380;45.186;9.792;2022-10-31T00:05:42;101708.44;;;12.14;100.00
51297;BME280;37380;45.186;9.792;2022-10-31T00:08:09;101669.50;;;12.03;100.00
51297;BME280;37380;45.186;9.792;2022-10-31T00:10:38;101651.09;;;12.01;100.00
51297;BME280;37380;45.186;9.792;2022-10-31T00:13:06;101722.84;;;12.64;100.00
51297;BME280;37380;45.186;9.792;2022-10-31T00:15:38;101668.19;;;12.33;100.00
51297;BME280;37380;45.186;9.792;2022-10-31T00:18:06;101752.69;;;12.68;100.00
51297;BME280;37380;45.186;9.792;2022-10-31T00:20:33;101715.66;;;12.39;100.00
51297;BME280;37380;45.186;9.792;2022-10-31T00:23:08;101730.97;;;12.30;100.00
51297;BME280;37380;45.186;9.792;2022-10-31T00:26:03;101676.84;;;11.72;100.00
51297;BME280;37380;45.186;9.792;2022-10-31T00:28:31;101676.06;;;11.55;100.00
51297;BME280;37380;45.186;9.792;2022-10-31T00:31:03;101717.84;;;11.90;100.00
51297;BME280;37380;45.186;9.792;2022-10-31T00:33:30;101721.53;;;11.95;100.00
51297;BME280;37380;45.186;9.792;2022-10-31T00:35:59;101617.31;;;11.29;100.00
51297;BME280;37380;45.186;9.792;2022-10-31T00:38:32;101752.44;;;12.02;100.00
51297;BME280;37380;45.186;9.792;2022-10-31T00:41:34;101722.72;;;12.02;100.00
51297;BME280;37380;45.186;9.792;2022-10-31T00:44:28;101710.63;;;11.86;100.00
51297;BME280;37380;45.186;9.792;2022-10-31T00:46:55;101723.22;;;11.93;100.00
51297;BME280;37380;45.186;9.792;2022-10-31T00:49:22;101689.88;;;11.71;100.00
51297;BME280;37380;45.186;9.792;2022-10-31T00:51:49;101740.25;;;11.85;100.00
51297;BME280;37380;45.186;9.792;2022-10-31T00:54:22;101688.28;;;11.37;100.00
51297;BME280;37380;45.186;9.792;2022-10-31T00:57:24;101726.50;;;11.71;100.00
51297;BME280;37380;45.186;9.792;2022-10-31T01:00:19;101733.34;;;11.67;100.00
51297;BME280;37380;45.186;9.792;2022-10-31T01:02:52;101702.53;;;11.62;100.00
51297;BME280;37380;45.186;9.792;2022-10-31T01:06:05;101756.94;;;11.87;100.00
51297;BME280;37380;45.186;9.792;2022-10-31T01:08:33;101745.56;;;11.86;100.00
51297;BME280;37380;45.186;9.792;2022-10-31T01:11:11;101746.69;;;11.91;100.00
51297;BME280;37380;45.186;9.792;2022-10-31T01:13:39;101706.03;;;11.62;100.00
51297;BME280;37380;45.186;9.792;2022-10-31T01:16:09;101748.22;;;12.06;100.00
51297;BME280;37380;45.186;9.792;2022-10-31T01:18:37;101671.13;;;11.62;100.00
51297;BME280;37380;45.186;9.792;2022-10-31T01:21:07;101738.56;;;12.05;100.00
51297;BME280;37380;45.186;9.792;2022-10-31T01:23:35;101743.69;;;12.02;100.00
51297;BME280;37380;45.186;9.792;2022-10-31T01:26:09;101740.09;;;11.99;100.00
51297;BME280;37380;45.186;9.792;2022-10-31T01:28:46;101746.63;;;11.90;100.00
51297;BME280;37380;45.186;9.792;2022-10-31T01:31:15;101700.19;;;11.68;100.00
51297;BME280;37380;45.186;9.792;2022-10-31T01:33:50;101610.22;;;11.27;100.00
51297;BME280;37380;45.186;9.792;2022-10-31T01:36:44;101678.56;;;11.52;100.00
51297;BME280;37380;45.186;9.792;2022-10-31T01:39:14;101559.84;;;10.76;100.00
51297;BME280;37380;45.186;9.792;2022-10-31T01:41:52;101728.88;;;11.84;100.00
51297;BME280;37380;45.186;9.792;2022-10-31T01:47:17;101714.66;;;11.60;100.00
51297;BME280;37380;45.186;9.792;2022-10-31T01:49:49;101724.44;;;11.64;100.00
51297;BME280;37380;45.186;9.792;2022-10-31T01:52:29;101720.16;;;11.66;100.00
51297;BME280;37380;45.186;9.792;2022-10-31T01:55:25;101678.50;;;11.33;100.00
51297;BME280;37380;45.186;9.792;2022-10-31T01:58:13;101662.28;;;11.22;100.00
51297;BME280;37380;45.186;9.792;2022-10-31T02:00:47;101721.50;;;11.57;100.00
51297;BME280;37380;45.186;9.792;2022-10-31T02:03:16;101726.75;;;11.57;100.00
51297;BME280;37380;45.186;9.792;2022-10-31T02:05:43;101663.69;;;11.14;100.00
51297;BME280;37380;45.186;9.792;2022-10-31T02:08:21;101711.19;;;11.41;100.00
51297;BME280;37380;45.186;9.792;2022-10-31T02:10:49;101688.28;;;11.37;100.00
51297;BME280;37380;45.186;9.792;2022-10-31T02:13:24;101609.00;;;10.83;100.00
51297;BME280;37380;45.186;9.792;2022-10-31T02:16:25;101703.47;;;11.44;100.00
51297;BME280;37380;45.186;9.792;2022-10-31T02:19:40;101693.53;;;11.37;100.00
51297;BME280;37380;45.186;9.792;2022-10-31T02:22:43;101713.25;;;11.48;100.00
51297;BME280;37380;45.186;9.792;2022-10-31T02:26:11;101694.97;;;11.30;100.00
51297;BME280;37380;45.186;9.792;2022-10-31T02:28:25;101717.53;;;11.46;100.00
51297;BME280;37380;45.186;9.792;2022-10-31T02:33:43;101710.75;;;11.51;100.00
51297;BME280;37380;45.186;9.792;2022-10-31T02:39:11;101709.44;;;11.42;100.00
51297;BME280;37380;45.186;9.792;2022-10-31T02:48:20;101665.88;;;11.24;100.00
51297;BME280;37380;45.186;9.792;2022-10-31T02:50:57;101634.25;;;11.00;100.00
51297;BME280;37380;45.186;9.792;2022-10-31T02:53:35;101703.84;;;11.52;100.00
51297;BME280;37380;45.186;9.792;2022-10-31T02:56:30;101698.09;;;11.41;100.00
51297;BME280;37380;45.186;9.792;2022-10-31T02:59:01;101705.06;;;11.41;100.00
51297;BME280;37380;45.186;9.792;2022-10-31T03:04:31;101642.97;;;11.01;100.00
51297;BME280;37380;45.186;9.792;2022-10-31T03:07:26;101707.16;;;11.30;100.00
51297;BME280;37380;45.186;9.792;2022-10-31T03:19:43;101709.38;;;11.22;100.00
51297;BME280;37380;45.186;9.792;2022-10-31T03:22:23;101675.78;;;10.94;100.00
51297;BME280;37380;45.186;9.792;2022-10-31T03:24:53;101712.84;;;11.03;100.00
51297;BME280;37380;45.186;9.792;2022-10-31T03:27:25;101714.19;;;11.13;100.00
51297;BME280;37380;45.186;9.792;2022-10-31T03:29:55;101550.13;;;10.19;100.00
51297;BME280;37380;45.186;9.792;2022-10-31T03:34:59;101712.97;;;11.24;100.00
51297;BME280;37380;45.186;9.792;2022-10-31T03:37:30;101701.47;;;11.21;100.00
51297;BME280;37380;45.186;9.792;2022-10-31T03:40:00;101717.91;;;11.18;100.00
51297;BME280;37380;45.186;9.792;2022-10-31T03:42:39;101698.34;;;11.10;100.00
51297;BME280;37380;45.186;9.792;2022-10-31T03:45:45;101722.25;;;11.18;100.00
51297;BME280;37380;45.186;9.792;2022-10-31T03:48:39;101719.69;;;11.19;100.00
51297;BME280;37380;45.186;9.792;2022-10-31T03:53:57;101729.88;;;11.13;100.00
51297;BME280;37380;45.186;9.792;2022-10-31T03:56:57;101638.28;;;10.58;100.00
51297;BME280;37380;45.186;9.792;2022-10-31T03:59:39;101658.75;;;10.67;100.00
51297;BME280;37380;45.186;9.792;2022-10-31T04:02:16;101694.84;;;10.92;100.00
51297;BME280;37380;45.186;9.792;2022-10-31T04:05:13;101715.53;;;11.05;100.00
51297;BME280;37380;45.186;9.792;2022-10-31T04:07:46;101588.31;;;10.34;100.00
51297;BME280;37380;45.186;9.792;2022-10-31T04:10:16;101677.03;;;10.84;100.00
51297;BME280;37380;45.186;9.792;2022-10-31T04:12:50;101724.88;;;11.18;100.00
51297;BME280;37380;45.186;9.792;2022-10-31T04:15:22;101727.34;;;11.15;100.00
51297;BME280;37380;45.186;9.792;2022-10-31T04:17:53;101727.63;;;11.21;100.00
51297;BME280;37380;45.186;9.792;2022-10-31T04:20:39;101729.41;;;11.22;100.00
51297;BME280;37380;45.186;9.792;2022-10-31T04:23:28;101696.19;;;11.01;100.00
51297;BME280;37380;45.186;9.792;2022-10-31T04:25:56;101682.72;;;10.94;100.00
51297;BME280;37380;45.186;9.792;2022-10-31T04:28:23;101533.34;;;10.14;100.00
51297;BME280;37380;45.186;9.792;2022-10-31T04:30:50;101704.16;;;11.04;100.00
51297;BME280;37380;45.186;9.792;2022-10-31T04:33:18;101706.13;;;11.08;100.00
51297;BME280;37380;45.186;9.792;2022-10-31T04:35:46;101686.91;;;10.90;100.00
51297;BME280;37380;45.186;9.792;2022-10-31T04:38:14;101646.50;;;10.65;100.00
51297;BME280;37380;45.186;9.792;2022-10-31T04:40:48;101653.75;;;10.53;100.00
51297;BME280;37380;45.186;9.792;2022-10-31T04:44:13;101657.84;;;10.66;100.00
51297;BME280;37380;45.186;9.792;2022-10-31T04:47:08;101651.72;;;10.65;100.00
51297;BME280;37380;45.186;9.792;2022-10-31T04:49:35;101642.31;;;10.51;100.00
51297;BME280;37380;45.186;9.792;2022-10-31T04:52:02;101665.78;;;10.68;100.00
51297;BME280;37380;45.186;9.792;2022-10-31T04:54:36;101702.59;;;10.90;100.00
51297;BME280;37380;45.186;9.792;2022-10-31T04:57:55;101707.22;;;10.96;100.00
51297;BME280;37380;45.186;9.792;2022-10-31T05:00:54;101717.84;;;11.17;100.00
51297;BME280;37380;45.186;9.792;2022-10-31T05:03:21;101672.19;;;10.92;100.00
51297;BME280;37380;45.186;9.792;2022-10-31T05:05:49;101662.03;;;10.80;100.00
51297;BME280;37380;45.186;9.792;2022-10-31T05:08:16;101699.38;;;10.96;100.00
51297;BME280;37380;45.186;9.792;2022-10-31T05:10:44;101659.19;;;10.76;100.00
51297;BME280;37380;45.186;9.792;2022-10-31T05:13:12;101683.53;;;10.93;100.00
51297;BME280;37380;45.186;9.792;2022-10-31T05:15:42;101602.28;;;10.52;100.00
51297;BME280;37380;45.186;9.792;2022-10-31T05:18:27;101684.72;;;10.99;100.00
51297;BME280;37380;45.186;9.792;2022-10-31T05:21:13;101626.03;;;10.57;100.00
51297;BME280;37380;45.186;9.792;2022-10-31T05:23:43;101671.91;;;10.86;100.00
51297;BME280;37380;45.186;9.792;2022-10-31T05:26:14;101655.31;;;10.85;100.00
51297;BME280;37380;45.186;9.792;2022-10-31T05:28:41;101668.59;;;10.90;100.00
51297;BME280;37380;45.186;9.792;2022-10-31T05:31:10;101689.97;;;10.99;100.00
51297;BME280;37380;45.186;9.792;2022-10-31T05:33:37;101691.09;;;11.04;100.00
51297;BME280;37380;45.186;9.792;2022-10-31T05:36:22;101659.94;;;11.09;100.00
51297;BME280;37380;45.186;9.792;2022-10-31T05:38:56;101639.25;;;10.78;100.00
51297;BME280;37380;45.186;9.792;2022-10-31T05:41:34;101706.34;;;11.13;100.00
51297;BME280;37380;45.186;9.792;2022-10-31T05:44:38;101690.28;;;11.05;100.00
51297;BME280;37380;45.186;9.792;2022-10-31T05:47:59;101711.50;;;11.12;100.00
51297;BME280;37380;45.186;9.792;2022-10-31T05:51:22;101722.13;;;11.15;100.00
51297;BME280;37380;45.186;9.792;2022-10-31T05:53:55;101692.56;;;10.81;100.00
51297;BME280;37380;45.186;9.792;2022-10-31T05:56:55;101674.22;;;10.80;100.00
51297;BME280;37380;45.186;9.792;2022-10-31T05:59:21;101694.75;;;10.90;100.00
51297;BME280;37380;45.186;9.792;2022-10-31T06:01:55;101698.94;;;11.04;100.00
51297;BME280;37380;45.186;9.792;2022-10-31T06:05:13;101727.19;;;11.12;100.00
51297;BME280;37380;45.186;9.792;2022-10-31T06:07:46;101585.06;;;10.22;100.00
51297;BME280;37380;45.186;9.792;2022-10-31T06:10:44;101730.63;;;11.10;100.00
51297;BME280;37380;45.186;9.792;2022-10-31T06:13:13;101692.56;;;10.99;100.00
51297;BME280;37380;45.186;9.792;2022-10-31T06:15:47;101738.94;;;11.38;100.00
51297;BME280;37380;45.186;9.792;2022-10-31T06:18:19;101709.91;;;11.33;100.00
51297;BME280;37380;45.186;9.792;2022-10-31T06:20:48;101671.88;;;11.22;100.00
51297;BME280;37380;45.186;9.792;2022-10-31T06:23:15;101704.81;;;11.36;100.00
51297;BME280;37380;45.186;9.792;2022-10-31T06:25:49;101690.38;;;11.44;100.00
51297;BME280;37380;45.186;9.792;2022-10-31T06:28:16;101738.91;;;11.75;100.00
51297;BME280;37380;45.186;9.792;2022-10-31T06:30:59;101723.25;;;11.57;100.00
51297;BME280;37380;45.186;9.792;2022-10-31T06:33:26;101647.66;;;11.08;100.00
51297;BME280;37380;45.186;9.792;2022-10-31T06:35:56;101688.44;;;11.40;100.00
51297;BME280;37380;45.186;9.792;2022-10-31T06:38:25;101714.31;;;11.71;100.00
51297;BME280;37380;45.186;9.792;2022-10-31T06:40:54;101738.78;;;11.90;100.00
51297;BME280;37380;45.186;9.792;2022-10-31T06:43:48;101729.38;;;11.95;100.00
51297;BME280;37380;45.186;9.792;2022-10-31T06:46:56;101724.22;;;11.96;100.00
51297;BME280;37380;45.186;9.792;2022-10-31T06:49:49;101737.03;;;12.29;100.00
51297;BME280;37380;45.186;9.792;2022-10-31T06:52:55;101734.41;;;12.49;100.00
51297;BME280;37380;45.186;9.792;2022-10-31T06:55:52;101756.13;;;12.86;100.00
51297;BME280;37380;45.186;9.792;2022-10-31T06:58:19;101696.63;;;12.64;100.00
51297;BME280;37380;45.186;9.792;2022-10-31T07:00:47;101695.84;;;12.88;100.00
51297;BME280;37380;45.186;9.792;2022-10-31T07:03:17;101774.31;;;13.67;100.00
51297;BME280;37380;45.186;9.792;2022-10-31T07:05:44;101740.03;;;13.64;100.00
51297;BME280;37380;45.186;9.792;2022-10-31T07:08:13;101718.13;;;13.64;100.00
51297;BME280;37380;45.186;9.792;2022-10-31T07:10:41;101791.38;;;14.25;100.00
51297;BME280;37380;45.186;9.792;2022-10-31T07:13:14;101792.66;;;14.12;100.00
51297;BME280;37380;45.186;9.792;2022-10-31T07:15:48;101694.69;;;13.46;100.00
51297;BME280;37380;45.186;9.792;2022-10-31T07:18:16;101708.25;;;13.13;100.00
51297;BME280;37380;45.186;9.792;2022-10-31T07:20:43;101688.16;;;12.93;100.00
51297;BME280;37380;45.186;9.792;2022-10-31T07:23:10;101795.78;;;13.79;100.00
51297;BME280;37380;45.186;9.792;2022-10-31T07:25:41;101760.78;;;13.80;100.00
51297;BME280;37380;45.186;9.792;2022-10-31T07:28:14;101743.91;;;13.96;100.00
51297;BME280;37380;45.186;9.792;2022-10-31T07:30:49;101795.81;;;14.26;100.00
51297;BME280;37380;45.186;9.792;2022-10-31T07:33:19;101799.22;;;14.23;100.00
51297;BME280;37380;45.186;9.792;2022-10-31T07:36:06;101811.16;;;14.62;100.00
51297;BME280;37380;45.186;9.792;2022-10-31T07:38:34;101816.41;;;14.62;100.00
51297;BME280;37380;45.186;9.792;2022-10-31T07:41:09;101783.03;;;14.37;100.00
51297;BME280;37380;45.186;9.792;2022-10-31T07:44:04;101805.53;;;14.29;100.00
51297;BME280;37380;45.186;9.792;2022-10-31T07:47:16;101746.31;;;14.14;100.00
51297;BME280;37380;45.186;9.792;2022-10-31T07:50:01;101820.78;;;14.61;100.00
51297;BME280;37380;45.186;9.792;2022-10-31T07:56:18;101794.47;;;15.67;100.00
51297;BME280;37380;45.186;9.792;2022-10-31T07:58:45;101801.09;;;16.10;100.00
51297;BME280;37380;45.186;9.792;2022-10-31T08:01:13;101823.00;;;15.53;100.00
51297;BME280;37380;45.186;9.792;2022-10-31T08:03:47;101818.88;;;15.59;100.00
51297;BME280;37380;45.186;9.792;2022-10-31T08:06:34;101790.63;;;16.13;100.00
51297;BME280;37380;45.186;9.792;2022-10-31T08:09:21;101825.78;;;16.12;100.00
51297;BME280;37380;45.186;9.792;2022-10-31T08:11:49;101763.78;;;15.40;100.00
51297;BME280;37380;45.186;9.792;2022-10-31T08:14:18;101831.13;;;16.15;100.00
51297;BME280;37380;45.186;9.792;2022-10-31T08:16:46;101824.53;;;16.29;100.00
51297;BME280;37380;45.186;9.792;2022-10-31T08:19:13;101738.91;;;15.59;100.00
51297;BME280;37380;45.186;9.792;2022-10-31T08:21:42;101775.00;;;16.19;100.00
51297;BME280;37380;45.186;9.792;2022-10-31T08:24:10;101821.44;;;16.75;100.00
51297;BME280;37380;45.186;9.792;2022-10-31T08:26:38;101799.59;;;16.81;100.00
51297;BME280;37380;45.186;9.792;2022-10-31T08:29:08;101739.81;;;16.50;100.00
51297;BME280;37380;45.186;9.792;2022-10-31T08:31:37;101793.88;;;16.34;100.00
51297;BME280;37380;45.186;9.792;2022-10-31T08:34:27;101806.59;;;16.47;100.00
51297;BME280;37380;45.186;9.792;2022-10-31T08:37:26;101769.97;;;17.28;100.00
51297;BME280;37380;45.186;9.792;2022-10-31T08:39:54;101785.44;;;17.85;100.00
51297;BME280;37380;45.186;9.792;2022-10-31T08:42:27;101753.91;;;16.50;100.00
51297;BME280;37380;45.186;9.792;2022-10-31T08:45:30;101814.34;;;16.73;100.00
51297;BME280;37380;45.186;9.792;2022-10-31T08:48:38;101779.66;;;16.61;100.00
51297;BME280;37380;45.186;9.792;2022-10-31T08:51:40;101721.16;;;16.11;100.00
51297;BME280;37380;45.186;9.792;2022-10-31T08:54:15;101735.00;;;16.67;100.00
51297;BME280;37380;45.186;9.792;2022-10-31T08:57:45;101748.69;;;16.85;100.00
51297;BME280;37380;45.186;9.792;2022-10-31T09:00:12;101806.53;;;17.46;100.00
51297;BME280;37380;45.186;9.792;2022-10-31T09:03:16;101815.59;;;17.95;100.00
51297;BME280;37380;45.186;9.792;2022-10-31T09:05:44;101776.69;;;17.50;100.00
51297;BME280;37380;45.186;9.792;2022-10-31T09:08:13;101818.88;;;18.22;100.00
51297;BME280;37380;45.186;9.792;2022-10-31T09:10:44;101779.25;;;18.71;100.00
51297;BME280;37380;45.186;9.792;2022-10-31T09:13:22;101761.66;;;19.25;100.00
51297;BME280;37380;45.186;9.792;2022-10-31T09:16:38;101811.63;;;18.56;100.00
51297;BME280;37380;45.186;9.792;2022-10-31T09:19:11;101770.94;;;18.51;100.00
51297;BME280;37380;45.186;9.792;2022-10-31T09:21:44;101759.38;;;18.02;100.00
51297;BME280;37380;45.186;9.792;2022-10-31T09:24:11;101794.56;;;18.86;100.00
51297;BME280;37380;45.186;9.792;2022-10-31T09:26:41;101744.84;;;18.71;100.00
51297;BME280;37380;45.186;9.792;2022-10-31T09:29:22;101707.38;;;18.49;100.00
51297;BME280;37380;45.186;9.792;2022-10-31T09:32:02;101721.13;;;19.30;100.00
51297;BME280;37380;45.186;9.792;2022-10-31T09:35:03;101774.81;;;19.75;100.00
51297;BME280;37380;45.186;9.792;2022-10-31T09:38:14;101808.84;;;20.06;100.00
51297;BME280;37380;45.186;9.792;2022-10-31T09:40:46;101809.97;;;20.27;100.00
51297;BME280;37380;45.186;9.792;2022-10-31T09:52:00;101741.72;;;20.15;100.00
51297;BME280;37380;45.186;9.792;2022-10-31T09:54:52;101797.44;;;20.91;100.00
51297;BME280;37380;45.186;9.792;2022-10-31T09:57:55;101782.72;;;19.72;100.00
51297;BME280;37380;45.186;9.792;2022-10-31T10:00:49;101770.41;;;19.77;100.00
51297;BME280;37380;45.186;9.792;2022-10-31T10:06:25;101803.25;;;19.30;100.00
51297;BME280;37380;45.186;9.792;2022-10-31T10:09:14;101762.69;;;19.33;100.00
51297;BME280;37380;45.186;9.792;2022-10-31T10:12:30;101795.84;;;19.64;100.00
51297;BME280;37380;45.186;9.792;2022-10-31T10:24:08;101744.97;;;19.29;100.00
51297;BME280;37380;45.186;9.792;2022-10-31T10:29:55;101798.72;;;19.78;100.00
51297;BME280;37380;45.186;9.792;2022-10-31T10:32:52;101805.56;;;19.63;100.00
51297;BME280;37380;45.186;9.792;2022-10-31T10:35:50;101795.59;;;20.81;100.00
51297;BME280;37380;45.186;9.792;2022-10-31T10:41:20;101795.72;;;20.19;100.00
51297;BME280;37380;45.186;9.792;2022-10-31T10:44:14;101721.47;;;20.22;100.00
51297;BME280;37380;45.186;9.792;2022-10-31T10:49:40;101787.91;;;20.28;100.00
51297;BME280;37380;45.186;9.792;2022-10-31T10:52:31;101734.00;;;20.35;100.00
51297;BME280;37380;45.186;9.792;2022-10-31T10:55:52;101746.25;;;21.14;100.00
51297;BME280;37380;45.186;9.792;2022-10-31T10:58:40;101767.44;;;21.03;100.00
51297;BME280;37380;45.186;9.792;2022-10-31T11:01:11;101632.81;;;21.00;100.00
51297;BME280;37380;45.186;9.792;2022-10-31T11:03:46;101753.97;;;22.13;100.00
51297;BME280;37380;45.186;9.792;2022-10-31T11:06:59;101749.63;;;22.43;98.57
51297;BME280;37380;45.186;9.792;2022-10-31T11:10:04;101766.00;;;21.39;95.69
51297;BME280;37380;45.186;9.792;2022-10-31T11:12:32;101742.94;;;21.39;95.47
51297;BME280;37380;45.186;9.792;2022-10-31T11:15:07;101735.09;;;21.64;93.55
51297;BME280;37380;45.186;9.792;2022-10-31T11:17:48;101743.53;;;21.05;97.45
51297;BME280;37380;45.186;9.792;2022-10-31T11:23:04;101747.25;;;21.28;97.87
51297;BME280;37380;45.186;9.792;2022-10-31T11:26:01;101693.13;;;21.17;95.06
51297;BME280;37380;45.186;9.792;2022-10-31T11:28:29;101696.59;;;21.05;95.57
51297;BME280;37380;45.186;9.792;2022-10-31T11:31:07;101735.69;;;21.18;96.50
51297;BME280;37380;45.186;9.792;2022-10-31T11:34:36;101708.25;;;21.21;95.06
51297;BME280;37380;45.186;9.792;2022-10-31T11:37:34;101714.59;;;21.38;94.04
51297;BME280;37380;45.186;9.792;2022-10-31T11:40:21;101726.13;;;21.43;92.63
51297;BME280;37380;45.186;9.792;2022-10-31T11:43:17;101722.53;;;21.35;94.55
51297;BME280;37380;45.186;9.792;2022-10-31T11:45:45;101703.94;;;21.40;94.51
51297;BME280;37380;45.186;9.792;2022-10-31T11:48:21;101719.84;;;21.34;95.88
51297;BME280;37380;45.186;9.792;2022-10-31T11:51:25;101695.91;;;21.32;93.29
51297;BME280;37380;45.186;9.792;2022-10-31T11:54:29;101727.94;;;21.47;93.59
51297;BME280;37380;45.186;9.792;2022-10-31T11:57:31;101689.78;;;21.39;91.51
51297;BME280;37380;45.186;9.792;2022-10-31T12:00:01;101707.66;;;21.69;90.90
51297;BME280;37380;45.186;9.792;2022-10-31T12:02:37;101644.50;;;21.32;90.27
51297;BME280;37380;45.186;9.792;2022-10-31T12:05:11;101666.91;;;21.74;89.38
51297;BME280;37380;45.186;9.792;2022-10-31T12:07:44;101635.06;;;21.97;90.34
51297;BME280;37380;45.186;9.792;2022-10-31T12:10:12;101650.25;;;22.25;86.72
51297;BME280;37380;45.186;9.792;2022-10-31T12:12:58;101679.53;;;22.68;86.15
51297;BME280;37380;45.186;9.792;2022-10-31T12:22:01;101650.25;;;22.28;86.67
51297;BME280;37380;45.186;9.792;2022-10-31T12:25:02;101662.66;;;22.35;84.72
51297;BME280;37380;45.186;9.792;2022-10-31T12:30:23;101602.16;;;21.78;86.48
51297;BME280;37380;45.186;9.792;2022-10-31T12:57:56;101604.00;;;22.05;85.11
51297;BME280;37380;45.186;9.792;2022-10-31T13:00:26;101634.28;;;22.34;84.72
51297;BME280;37380;45.186;9.792;2022-10-31T13:05:37;101636.91;;;22.18;84.52
51297;BME280;37380;45.186;9.792;2022-10-31T13:08:38;101622.63;;;22.03;84.68
51297;BME280;37380;45.186;9.792;2022-10-31T13:11:21;101606.72;;;22.19;84.15
51297;BME280;37380;45.186;9.792;2022-10-31T13:14:04;101616.50;;;22.43;83.55
51297;BME280;37380;45.186;9.792;2022-10-31T13:16:37;101602.31;;;22.34;82.96
51297;BME280;37380;45.186;9.792;2022-10-31T13:19:29;101596.97;;;22.59;82.51
51297;BME280;37380;45.186;9.792;2022-10-31T13:22:32;101577.44;;;22.51;82.93
51297;BME280;37380;45.186;9.792;2022-10-31T13:25:31;101525.06;;;22.11;81.65
51297;BME280;37380;45.186;9.792;2022-10-31T13:28:05;101603.19;;;22.38;82.35
51297;BME280;37380;45.186;9.792;2022-10-31T13:30:44;101530.38;;;21.98;83.15
51297;BME280;37380;45.186;9.792;2022-10-31T13:40:32;101590.75;;;22.65;76.33
51297;BME280;37380;45.186;9.792;2022-10-31T13:43:12;101594.34;;;22.54;75.42
51297;BME280;37380;45.186;9.792;2022-10-31T13:45:49;101507.31;;;22.10;74.67
51297;BME280;37380;45.186;9.792;2022-10-31T13:50:59;101576.53;;;22.56;75.48
51297;BME280;37380;45.186;9.792;2022-10-31T13:54:06;101584.53;;;22.73;77.27
51297;BME280;37380;45.186;9.792;2022-10-31T13:57:38;101578.34;;;22.60;74.86
51297;BME280;37380;45.186;9.792;2022-10-31T14:02:50;101525.94;;;22.15;76.99
51297;BME280;37380;45.186;9.792;2022-10-31T14:05:28;101508.22;;;22.08;76.85
51297;BME280;37380;45.186;9.792;2022-10-31T14:08:24;101523.31;;;22.18;75.96
51297;BME280;37380;45.186;9.792;2022-10-31T14:10:53;101567.69;;;22.57;74.15
51297;BME280;37380;45.186;9.792;2022-10-31T14:13:21;101558.81;;;22.45;74.17
51297;BME280;37380;45.186;9.792;2022-10-31T14:15:55;101512.66;;;22.21;78.09
51297;BME280;37380;45.186;9.792;2022-10-31T14:18:36;101566.78;;;22.54;75.75
51297;BME280;37380;45.186;9.792;2022-10-31T14:23:51;101476.28;;;22.08;74.84
51297;BME280;37380;45.186;9.792;2022-10-31T14:31:43;101506.44;;;22.13;74.13
51297;BME280;37380;45.186;9.792;2022-10-31T14:41:24;101552.56;;;22.56;73.95
51297;BME280;37380;45.186;9.792;2022-10-31T14:53:01;101525.06;;;21.98;78.38
51297;BME280;37380;45.186;9.792;2022-10-31T14:56:09;101525.91;;;21.81;80.47
51297;BME280;37380;45.186;9.792;2022-10-31T14:58:39;101541.91;;;21.90;80.52
51297;BME280;37380;45.186;9.792;2022-10-31T15:01:26;101540.13;;;21.86;81.44
51297;BME280;37380;45.186;9.792;2022-10-31T15:04:25;101547.19;;;21.81;80.32
51297;BME280;37380;45.186;9.792;2022-10-31T15:06:57;101540.13;;;21.80;80.63
51297;BME280;37380;45.186;9.792;2022-10-31T15:09:34;101538.28;;;21.64;81.17
51297;BME280;37380;45.186;9.792;2022-10-31T15:14:51;101505.34;;;21.19;85.40
51297;BME280;37380;45.186;9.792;2022-10-31T15:17:20;101492.03;;;21.10;85.17
51297;BME280;37380;45.186;9.792;2022-10-31T15:19:55;101520.41;;;21.26;83.61
51297;BME280;37380;45.186;9.792;2022-10-31T15:22:49;101520.38;;;21.11;83.99
51297;BME280;37380;45.186;9.792;2022-10-31T15:25:22;101539.00;;;21.18;85.60
51297;BME280;37380;45.186;9.792;2022-10-31T15:27:56;101469.66;;;20.65;88.97
51297;BME280;37380;45.186;9.792;2022-10-31T15:31:02;101505.06;;;20.65;90.04
51297;BME280;37380;45.186;9.792;2022-10-31T15:33:38;101533.44;;;20.69;93.07
51297;BME280;37380;45.186;9.792;2022-10-31T15:36:19;101444.50;;;20.04;93.66
51297;BME280;37380;45.186;9.792;2022-10-31T15:39:00;101473.84;;;20.29;92.67
51297;BME280;37380;45.186;9.792;2022-10-31T15:42:01;101460.28;;;19.92;95.14
51297;BME280;37380;45.186;9.792;2022-10-31T15:45:12;101536.69;;;20.31;94.37
51297;BME280;37380;45.186;9.792;2022-10-31T15:48:17;101528.69;;;20.30;97.84
51297;BME280;37380;45.186;9.792;2022-10-31T15:50:53;101527.81;;;20.28;99.10
51297;BME280;37380;45.186;9.792;2022-10-31T15:53:36;101503.66;;;19.97;99.44
51297;BME280;37380;45.186;9.792;2022-10-31T15:56:31;101458.91;;;19.41;100.00
51297;BME280;37380;45.186;9.792;2022-10-31T15:59:00;101510.59;;;19.78;100.00
51297;BME280;37380;45.186;9.792;2022-10-31T16:01:33;101496.06;;;19.47;100.00
51297;BME280;37380;45.186;9.792;2022-10-31T16:04:20;101530.78;;;19.67;100.00
51297;BME280;37380;45.186;9.792;2022-10-31T16:07:10;101525.34;;;19.59;100.00
51297;BME280;37380;45.186;9.792;2022-10-31T16:09:59;101529.56;;;19.39;100.00
51297;BME280;37380;45.186;9.792;2022-10-31T16:12:35;101522.06;;;19.04;100.00
51297;BME280;37380;45.186;9.792;2022-10-31T16:15:04;101545.69;;;18.89;100.00
51297;BME280;37380;45.186;9.792;2022-10-31T16:17:34;101526.81;;;18.67;100.00